Terminal Aerodrome Forecast
Issued by NWS

Home | Current Version | Previous Version | Graphics & Text | Print | Product List | Glossary On
Versions: 1 2 3 4 5 6 7 8 9 10 11 12 13 14 15 16 17
000
FTUS43 KBIS 181129
TAFDIK
TAF
KDIK 181129Z 1812/1912 31011KT P6SM SCT015 SCT025
     FM181500 31013KT P6SM SCT025 SCT150
     FM182300 27009KT P6SM FEW250
     FM190300 24007KT P6SM SKC=

USA.gov is the U.S. government's official web portal to all federal, state and local government web resources and services.